Time;durP1;ratioP1;P1;durP2;ratioP2;P2;SDS_P1;SDS_P2;PMS_P1;PMS_P2;Temp;Humidity;BMP_temperature;BMP_pressure;BME280_temperature;BME280_humidity;BME280_pressure;Samples;Min_cycle;Max_cycle;Signal;HPM_P1;HPM_P2
2023/08/26 00:01:40;;;;;;;4.95;3.67;;;17.70;99.90;;;;;;5054476;28;20106;-63
2023/08/26 00:04:06;;;;;;;6.88;3.78;;;17.50;99.90;;;;;;5054032;28;20048;-63
2023/08/26 00:06:34;;;;;;;6.15;3.85;;;17.50;99.90;;;;;;5053368;28;20041;-62
2023/08/26 00:09:01;;;;;;;4.53;3.45;;;17.50;99.90;;;;;;5054066;28;20057;-62
2023/08/26 00:11:28;;;;;;;8.15;3.97;;;17.50;99.90;;;;;;5020085;28;20045;-63
2023/08/26 00:13:55;;;;;;;4.90;3.75;;;17.40;99.90;;;;;;5054086;28;20048;-62
2023/08/26 00:16:22;;;;;;;4.28;3.15;;;17.30;99.90;;;;;;5053024;28;20075;-62
2023/08/26 00:18:49;;;;;;;5.57;3.40;;;17.30;99.90;;;;;;5054273;28;20053;-62
2023/08/26 00:21:20;;;;;;;4.40;3.15;;;17.40;99.90;;;;;;5019863;28;20075;-63
2023/08/26 00:23:49;;;;;;;;;;;17.40;99.90;;;;;;5054211;28;20422;-63
2023/08/26 00:26:16;;;;;;;5.22;3.53;;;17.40;99.90;;;;;;5053355;28;20261;-63
2023/08/26 00:28:45;;;;;;;6.00;3.28;;;17.50;99.90;;;;;;5036217;28;20056;-62
2023/08/26 00:31:11;;;;;;;6.82;3.42;;;17.40;99.90;;;;;;5053860;28;20384;-62
2023/08/26 00:33:37;;;;;;;5.82;3.17;;;17.50;99.90;;;;;;5053833;28;20045;-63
2023/08/26 00:36:04;;;;;;;5.85;3.40;;;17.50;99.90;;;;;;5052718;28;20075;-63
2023/08/26 00:38:32;;;;;;;5.25;2.95;;;17.50;99.90;;;;;;5054004;28;20103;-63
2023/08/26 00:41:00;;;;;;;5.43;3.10;;;17.50;99.90;;;;;;5062904;28;20052;-63
2023/08/26 00:43:27;;;;;;;6.07;3.00;;;17.50;99.90;;;;;;5094166;28;20048;-63
2023/08/26 00:45:54;;;;;;;9.73;3.70;;;17.40;99.90;;;;;;5074871;28;20120;-62
2023/08/26 00:48:20;;;;;;;5.88;3.40;;;17.40;99.90;;;;;;5073552;28;20575;-63
2023/08/26 00:50:49;;;;;;;4.65;3.50;;;17.40;99.90;;;;;;5055422;28;20096;-62
2023/08/26 00:53:16;;;;;;;6.45;3.38;;;17.30;99.90;;;;;;5073405;28;20048;-63
2023/08/26 00:55:43;;;;;;;4.75;3.30;;;17.20;99.90;;;;;;5055518;28;20059;-63
2023/08/26 00:58:11;;;;;;;7.38;3.63;;;17.20;99.90;;;;;;5091466;28;20055;-62
2023/08/26 01:00:40;;;;;;;7.78;3.53;;;17.20;99.90;;;;;;5075796;28;20164;-62
2023/08/26 01:03:06;;;;;;;5.13;3.33;;;17.10;99.90;;;;;;5093428;28;20067;-62
2023/08/26 01:05:34;;;;;;;6.30;3.85;;;17.00;99.90;;;;;;5074674;28;20066;-62
2023/08/26 01:08:04;;;;;;;4.82;3.00;;;17.00;99.90;;;;;;5075190;28;20075;-63
2023/08/26 01:10:55;;;;;;;5.80;3.65;;;16.90;99.90;;;;;;5055618;28;20106;-63
2023/08/26 01:13:28;;;;;;;6.78;3.90;;;16.90;99.90;;;;;;5058441;28;20161;-62
2023/08/26 01:15:56;;;;;;;6.40;4.10;;;17.00;99.90;;;;;;5072293;28;20338;-62
2023/08/26 01:18:24;;;;;;;4.85;3.83;;;16.90;99.90;;;;;;5092897;28;20052;-63
2023/08/26 01:20:51;;;;;;;7.70;4.30;;;17.00;99.90;;;;;;5075250;28;20245;-63
2023/08/26 01:23:25;;;;;;;6.25;4.05;;;17.00;99.90;;;;;;5093158;28;20048;-63
2023/08/26 01:25:52;;;;;;;9.05;3.72;;;17.00;99.90;;;;;;5058388;28;20452;-63
2023/08/26 01:28:19;;;;;;;6.28;3.88;;;17.00;99.90;;;;;;5092228;28;20040;-62
2023/08/26 01:31:11;;;;;;;6.47;3.97;;;17.00;99.90;;;;;;5075025;28;20048;-63
2023/08/26 01:33:50;;;;;;;4.47;3.92;;;17.10;99.90;;;;;;5075460;28;20055;-63
2023/08/26 01:36:22;;;;;;;6.15;4.00;;;17.00;99.90;;;;;;5071159;28;20048;-63
2023/08/26 01:38:48;;;;;;;8.70;4.38;;;17.00;99.90;;;;;;5055015;28;20052;-63
2023/08/26 01:41:20;;;;;;;7.25;4.10;;;17.00;99.90;;;;;;5054230;28;20414;-63
2023/08/26 01:43:48;;;;;;;7.50;4.38;;;17.10;99.90;;;;;;5072465;28;20053;-63
2023/08/26 01:46:15;;;;;;;7.03;4.13;;;17.10;99.90;;;;;;5069507;28;20059;-63
2023/08/26 01:48:43;;;;;;;6.93;4.32;;;17.00;99.90;;;;;;5091562;28;20044;-63
2023/08/26 01:51:10;;;;;;;6.68;4.45;;;17.10;99.90;;;;;;5092324;28;20357;-63
2023/08/26 01:53:37;;;;;;;5.90;4.25;;;17.10;99.90;;;;;;5092405;28;20047;-62
2023/08/26 01:56:03;;;;;;;7.60;4.28;;;17.00;99.90;;;;;;5073601;28;20044;-63
2023/08/26 01:58:32;;;;;;;8.35;4.47;;;17.00;99.90;;;;;;5055096;28;20044;-62
2023/08/26 02:01:05;;;;;;;6.40;4.35;;;17.00;99.90;;;;;;5072060;28;20053;-63
2023/08/26 02:03:31;;;;;;;6.00;4.53;;;17.00;99.90;;;;;;5037828;28;20056;-62
2023/08/26 02:05:57;;;;;;;8.38;4.60;;;16.90;99.90;;;;;;5071204;28;20074;-63
2023/08/26 02:08:27;;;;;;;7.75;4.28;;;16.90;99.90;;;;;;5052033;28;20045;-63
2023/08/26 02:10:54;;;;;;;6.97;4.70;;;17.00;99.90;;;;;;5052169;28;20044;-62
2023/08/26 02:13:23;;;;;;;7.38;4.30;;;17.00;99.90;;;;;;5051741;28;20052;-63
2023/08/26 02:15:49;;;;;;;7.18;4.15;;;16.90;99.90;;;;;;5051486;28;20390;-63
2023/08/26 02:18:16;;;;;;;9.07;4.35;;;16.80;99.90;;;;;;5084583;28;20052;-63
2023/08/26 02:20:43;;;;;;;8.65;4.20;;;16.80;99.90;;;;;;5092627;28;20059;-62
2023/08/26 02:23:10;;;;;;;8.38;3.90;;;16.70;99.90;;;;;;5092612;28;20063;-62
2023/08/26 02:25:38;;;;;;;6.50;3.90;;;16.70;99.90;;;;;;5073581;28;20052;-62
2023/08/26 02:28:05;;;;;;;6.50;4.00;;;16.70;99.90;;;;;;5056565;28;20135;-64
2023/08/26 02:30:31;;;;;;;6.47;4.30;;;16.70;99.90;;;;;;5071794;28;20048;-62
2023/08/26 02:32:57;;;;;;;7.90;4.90;;;16.60;99.90;;;;;;5037544;28;20122;-62
2023/08/26 02:35:24;;;;;;;8.23;4.63;;;16.60;99.90;;;;;;5053746;28;20083;-62
2023/08/26 02:37:50;;;;;;;5.88;4.53;;;16.60;99.90;;;;;;5080824;28;20040;-62
2023/08/26 02:40:18;;;;;;;6.07;4.47;;;16.60;99.90;;;;;;5073820;28;20060;-62
2023/08/26 02:42:47;;;;;;;7.63;4.28;;;16.50;99.90;;;;;;5092069;28;20494;-62
2023/08/26 02:45:19;;;;;;;7.68;4.68;;;16.50;99.90;;;;;;5091526;28;20052;-62
2023/08/26 02:47:46;;;;;;;9.65;4.57;;;16.40;99.90;;;;;;5077241;28;20045;-63
2023/08/26 02:50:12;;;;;;;9.55;5.35;;;16.40;99.90;;;;;;5054039;28;20106;-62
2023/08/26 02:52:38;;;;;;;10.55;5.80;;;16.40;99.90;;;;;;5071250;28;20353;-63
2023/08/26 02:55:05;;;;;;;9.85;5.85;;;16.30;99.90;;;;;;5053396;28;20492;-63
2023/08/26 02:57:32;;;;;;;7.80;5.63;;;16.20;99.90;;;;;;5063317;28;20169;-62
2023/08/26 02:59:58;;;;;;;9.25;6.10;;;16.30;99.90;;;;;;5091901;28;20070;-63
2023/08/26 03:02:25;;;;;;;9.88;5.45;;;16.10;99.90;;;;;;5091713;28;20048;-62
2023/08/26 03:04:51;;;;;;;10.77;5.30;;;16.20;99.90;;;;;;5073745;28;20577;-62
2023/08/26 03:07:19;;;;;;;8.15;5.32;;;16.20;99.90;;;;;;5045933;28;20079;-63
2023/08/26 03:09:45;;;;;;;9.38;5.70;;;16.10;99.90;;;;;;5071595;28;20364;-62
2023/08/26 03:12:14;;;;;;;10.77;6.15;;;16.10;99.90;;;;;;5054014;28;20065;-63
2023/08/26 03:14:40;;;;;;;10.73;5.80;;;16.10;99.90;;;;;;5073650;28;20144;-62
2023/08/26 03:17:39;;;;;;;6.80;5.40;;;16.10;99.90;;;;;;5062924;28;20060;-62
2023/08/26 03:20:05;;;;;;;9.18;5.63;;;16.20;99.90;;;;;;5095465;28;20295;-62
2023/08/26 03:22:31;;;;;;;12.07;6.18;;;16.10;99.90;;;;;;5095647;28;20059;-62
2023/08/26 03:24:59;;;;;;;9.68;5.95;;;16.10;99.90;;;;;;5094822;28;20067;-63
2023/08/26 03:27:25;;;;;;;8.65;5.75;;;16.10;99.90;;;;;;5083526;28;20049;-63
2023/08/26 03:29:53;;;;;;;6.07;5.40;;;16.20;99.90;;;;;;5075206;28;20052;-63
2023/08/26 03:32:19;;;;;;;9.85;5.57;;;16.10;99.90;;;;;;5040995;28;20151;-62
2023/08/26 03:34:45;;;;;;;9.05;5.80;;;16.20;99.90;;;;;;5074843;28;20045;-61
2023/08/26 03:37:11;;;;;;;8.20;5.75;;;16.10;99.90;;;;;;5080897;28;20052;-62
2023/08/26 03:39:38;;;;;;;8.75;6.13;;;16.20;99.90;;;;;;5076720;28;20043;-62
2023/08/26 03:42:04;;;;;;;9.65;5.78;;;16.10;99.90;;;;;;5057245;28;20436;-61
2023/08/26 03:44:31;;;;;;;8.68;6.00;;;16.10;99.90;;;;;;5074446;28;20396;-62
2023/08/26 03:46:57;;;;;;;9.40;5.85;;;16.00;99.90;;;;;;5065947;28;20049;-63
2023/08/26 03:49:24;;;;;;;8.32;6.13;;;16.10;99.90;;;;;;5037211;28;20059;-62
2023/08/26 03:51:51;;;;;;;11.13;6.20;;;16.20;99.90;;;;;;5054216;28;20454;-62
2023/08/26 03:54:18;;;;;;;8.98;6.30;;;16.00;99.90;;;;;;5037062;28;20071;-62
2023/08/26 03:56:44;;;;;;;9.10;6.32;;;16.00;99.90;;;;;;5053183;28;20469;-63
2023/08/26 03:59:10;;;;;;;10.55;6.13;;;16.00;99.90;;;;;;5037007;28;20446;-62
2023/08/26 04:01:36;;;;;;;10.90;6.18;;;16.00;99.90;;;;;;5054468;28;20106;-62
2023/08/26 04:04:03;;;;;;;8.93;6.10;;;16.10;99.90;;;;;;5053416;28;20053;-62
2023/08/26 04:06:29;;;;;;;10.85;6.07;;;16.00;99.90;;;;;;5053169;28;20374;-63
2023/08/26 04:08:55;;;;;;;7.28;6.20;;;16.00;99.90;;;;;;5054319;28;20063;-62
2023/08/26 04:11:22;;;;;;;9.70;6.40;;;16.00;99.90;;;;;;5054212;28;20057;-62
2023/08/26 04:13:48;;;;;;;9.23;5.88;;;16.00;99.90;;;;;;5053995;28;20454;-61
2023/08/26 04:16:19;;;;;;;8.95;6.88;;;16.00;99.90;;;;;;5053343;28;20055;-63
2023/08/26 04:18:45;;;;;;;7.53;6.30;;;16.00;99.90;;;;;;5054338;28;20057;-63
2023/08/26 04:21:12;;;;;;;10.15;6.50;;;16.00;99.90;;;;;;5054064;28;20057;-62
2023/08/26 04:23:38;;;;;;;11.30;7.50;;;16.00;99.90;;;;;;5053986;28;20106;-61
2023/08/26 04:26:04;;;;;;;8.90;6.10;;;16.00;99.90;;;;;;5052391;28;20048;-62
2023/08/26 04:28:33;;;;;;;7.75;5.88;;;16.00;99.90;;;;;;5053454;28;20114;-62
2023/08/26 04:31:00;;;;;;;13.02;6.28;;;16.00;99.90;;;;;;5036345;28;20045;-62
2023/08/26 04:33:26;;;;;;;8.90;6.68;;;16.10;99.90;;;;;;5036347;28;20044;-62
2023/08/26 04:35:52;;;;;;;9.70;6.50;;;16.00;99.90;;;;;;5053116;28;20053;-62
2023/08/26 04:38:20;;;;;;;10.23;6.45;;;16.10;99.90;;;;;;5038736;28;20048;-63
2023/08/26 04:40:46;;;;;;;9.02;6.50;;;16.00;99.90;;;;;;5082843;28;20063;-62
2023/08/26 04:43:12;;;;;;;10.05;6.22;;;16.00;99.90;;;;;;5093703;28;20063;-62
2023/08/26 04:45:39;;;;;;;10.15;6.30;;;16.00;99.90;;;;;;5093134;28;20056;-62
2023/08/26 04:48:06;;;;;;;9.13;6.68;;;16.00;99.90;;;;;;5059104;28;20147;-62
2023/08/26 04:50:34;;;;;;;7.82;5.78;;;16.10;99.90;;;;;;5054914;28;20051;-63
2023/08/26 04:53:02;;;;;;;7.25;5.80;;;16.10;99.90;;;;;;5039436;28;20056;-62
2023/08/26 04:55:29;;;;;;;13.18;6.38;;;16.10;99.90;;;;;;5072699;28;20049;-63
2023/08/26 04:57:58;;;;;;;12.20;6.68;;;16.10;99.90;;;;;;5072714;28;20429;-62
2023/08/26 05:00:25;;;;;;;7.97;5.45;;;16.10;99.90;;;;;;5055621;28;20047;-63
2023/08/26 05:02:52;;;;;;;11.40;6.78;;;16.20;99.90;;;;;;5093386;28;20253;-62
2023/08/26 05:05:22;;;;;;;11.65;6.60;;;16.20;99.90;;;;;;5093121;28;20048;-62
2023/08/26 05:07:48;;;;;;;10.90;7.93;;;16.20;99.90;;;;;;5078138;28;20059;-63
2023/08/26 05:10:14;;;;;;;10.63;6.82;;;16.20;99.90;;;;;;5055324;28;20041;-63
2023/08/26 05:12:41;;;;;;;11.68;7.10;;;16.10;99.90;;;;;;5057993;28;20047;-62
2023/08/26 05:15:07;;;;;;;8.77;7.07;;;16.20;99.90;;;;;;5092587;28;20054;-62
2023/08/26 05:17:37;;;;;;;10.95;7.63;;;16.10;99.90;;;;;;5063344;28;20056;-62
2023/08/26 05:20:05;;;;;;;9.88;7.85;;;16.10;99.90;;;;;;5072705;28;20045;-62
2023/08/26 05:22:32;;;;;;;12.38;7.72;;;16.10;99.90;;;;;;5073013;28;20120;-62
2023/08/26 05:24:58;;;;;;;14.15;8.63;;;16.20;99.90;;;;;;5072497;28;20048;-62
2023/08/26 05:27:26;;;;;;;11.63;8.32;;;16.20;99.90;;;;;;5072588;28;20117;-62
2023/08/26 05:29:53;;;;;;;15.95;9.50;;;16.20;99.90;;;;;;5072400;28;20036;-62
2023/08/26 05:32:19;;;;;;;12.55;8.85;;;16.10;99.90;;;;;;5072314;28;20335;-62
2023/08/26 05:34:46;;;;;;;12.05;8.50;;;16.20;99.90;;;;;;5072329;28;20239;-62
2023/08/26 05:37:12;;;;;;;15.57;9.55;;;16.10;99.90;;;;;;5072169;28;20080;-62
2023/08/26 05:39:38;;;;;;;13.27;9.85;;;16.10;99.90;;;;;;5072050;28;20422;-61
2023/08/26 05:42:05;;;;;;;16.50;8.77;;;16.10;99.90;;;;;;5072302;28;20067;-63
2023/08/26 05:44:31;;;;;;;12.90;8.88;;;16.20;99.90;;;;;;5074123;28;20345;-62
2023/08/26 05:46:58;;;;;;;14.57;8.73;;;16.20;99.90;;;;;;5067484;28;20048;-62
2023/08/26 05:49:25;;;;;;;14.30;8.75;;;16.20;99.90;;;;;;5072185;28;20049;-61
2023/08/26 05:51:51;;;;;;;12.02;8.20;;;16.10;99.90;;;;;;5071780;28;20118;-62
2023/08/26 05:54:17;;;;;;;11.73;7.85;;;16.20;99.90;;;;;;5072191;28;20052;-62
2023/08/26 05:56:44;;;;;;;11.38;8.02;;;16.10;99.90;;;;;;5071367;28;20048;-62
2023/08/26 05:59:10;;;;;;;11.88;8.52;;;16.20;99.90;;;;;;5072046;28;20048;-61
2023/08/26 06:01:37;;;;;;;12.43;7.85;;;16.20;99.90;;;;;;5069716;28;20401;-62
2023/08/26 06:04:04;;;;;;;14.57;8.63;;;16.20;99.90;;;;;;5074399;28;20058;-61
2023/08/26 06:06:31;;;;;;;10.75;8.05;;;16.10;99.90;;;;;;5072956;28;20483;-63
2023/08/26 06:08:58;;;;;;;13.02;8.55;;;16.20;99.90;;;;;;5092140;28;20044;-62
2023/08/26 06:11:24;;;;;;;13.95;8.15;;;16.20;99.90;;;;;;5092304;28;20064;-61
2023/08/26 06:13:51;;;;;;;15.10;8.88;;;16.10;99.90;;;;;;5092189;28;20044;-62
2023/08/26 06:16:20;;;;;;;12.60;8.02;;;16.10;99.90;;;;;;5056872;28;20054;-63
2023/08/26 06:18:47;;;;;;;11.15;7.80;;;16.10;99.90;;;;;;5054433;28;20056;-61
2023/08/26 06:21:14;;;;;;;12.38;8.88;;;16.20;99.90;;;;;;5071741;28;20101;-62
2023/08/26 06:23:40;;;;;;;12.35;8.27;;;16.20;99.90;;;;;;5054092;28;20060;-62
2023/08/26 06:26:07;;;;;;;11.48;8.77;;;16.30;99.90;;;;;;5071467;28;20053;-62
2023/08/26 06:28:33;;;;;;;14.40;8.35;;;16.30;99.90;;;;;;5071215;28;20062;-62
2023/08/26 06:31:00;;;;;;;14.00;9.30;;;16.40;99.90;;;;;;5053700;28;20366;-62
2023/08/26 06:33:27;;;;;;;16.17;8.98;;;16.50;99.90;;;;;;5070675;28;20114;-62
2023/08/26 06:35:53;;;;;;;15.98;9.18;;;16.50;99.90;;;;;;5052905;28;20055;-61
2023/08/26 06:38:20;;;;;;;11.80;8.10;;;16.60;99.90;;;;;;5070054;28;20062;-61
2023/08/26 06:40:53;;;;;;;12.50;9.02;;;16.70;99.90;;;;;;5071476;28;20103;-62
2023/08/26 06:43:20;;;;;;;12.73;9.27;;;16.80;99.90;;;;;;5071710;28;20376;-62
2023/08/26 06:45:46;;;;;;;13.50;8.43;;;16.70;99.90;;;;;;5053290;28;20056;-63
2023/08/26 06:48:14;;;;;;;13.80;8.75;;;16.70;99.90;;;;;;5068269;28;20040;-62
2023/08/26 06:50:40;;;;;;;13.25;9.48;;;16.70;99.90;;;;;;5095680;28;20055;-62
2023/08/26 06:53:06;;;;;;;13.25;9.48;;;16.70;99.90;;;;;;5077912;28;20489;-62
2023/08/26 06:55:35;;;;;;;14.20;9.57;;;16.70;99.90;;;;;;5077125;28;20078;-62
2023/08/26 06:58:01;;;;;;;12.35;9.75;;;16.70;99.90;;;;;;5062928;28;20106;-62
2023/08/26 07:00:28;;;;;;;11.52;9.13;;;16.70;99.90;;;;;;5075186;28;20052;-62
2023/08/26 07:02:54;;;;;;;13.57;9.10;;;16.70;99.90;;;;;;5057986;28;20140;-62
2023/08/26 07:05:20;;;;;;;12.98;8.95;;;16.80;99.90;;;;;;5074294;28;20048;-62
2023/08/26 07:07:46;;;;;;;11.48;8.93;;;16.70;99.90;;;;;;5074827;28;20041;-62
2023/08/26 07:10:13;;;;;;;12.82;9.65;;;16.70;99.90;;;;;;5075209;28;20052;-62
2023/08/26 07:12:40;;;;;;;10.48;9.25;;;16.80;99.90;;;;;;5076166;28;20048;-63
2023/08/26 07:15:07;;;;;;;13.20;8.88;;;16.80;99.90;;;;;;5094963;28;20049;-62
2023/08/26 07:17:33;;;;;;;13.63;9.05;;;16.90;99.90;;;;;;5083888;28;20052;-62
2023/08/26 07:19:59;;;;;;;12.25;9.05;;;17.30;99.90;;;;;;5075461;28;20441;-62
2023/08/26 07:22:26;;;;;;;14.18;9.23;;;17.50;99.90;;;;;;5075188;28;20361;-63
2023/08/26 07:24:52;;;;;;;12.85;9.20;;;18.00;99.90;;;;;;5075008;28;20052;-62
2023/08/26 07:27:18;;;;;;;11.20;8.60;;;18.30;99.90;;;;;;5057264;28;20049;-62
2023/08/26 07:29:46;;;;;;;13.70;8.38;;;18.40;99.90;;;;;;5074197;28;20059;-63
2023/08/26 07:32:13;;;;;;;10.07;8.20;;;18.20;99.90;;;;;;5075017;28;20044;-62
2023/08/26 07:34:39;;;;;;;9.98;8.30;;;18.20;99.90;;;;;;5074588;28;20088;-62
2023/08/26 07:37:06;;;;;;;11.45;8.02;;;18.10;99.90;;;;;;5062393;28;20044;-63
2023/08/26 07:39:33;;;;;;;13.07;8.52;;;18.20;99.90;;;;;;5095039;28;20051;-63
2023/08/26 07:41:59;;;;;;;14.65;8.30;;;18.40;99.90;;;;;;5094576;28;20545;-62
2023/08/26 07:44:26;;;;;;;12.38;7.75;;;18.40;99.90;;;;;;5094907;28;20102;-64
2023/08/26 07:46:52;;;;;;;11.07;7.65;;;18.50;99.90;;;;;;5089733;28;20078;-62
2023/08/26 07:49:18;;;;;;;10.23;8.45;;;18.50;99.90;;;;;;5074620;28;20111;-62
2023/08/26 07:51:45;;;;;;;12.75;8.73;;;18.40;99.90;;;;;;5074514;28;20049;-63
2023/08/26 07:54:11;;;;;;;12.80;8.20;;;18.30;99.90;;;;;;5056908;28;20045;-62
2023/08/26 07:56:37;;;;;;;11.35;8.45;;;18.40;99.90;;;;;;5073238;28;20044;-61
2023/08/26 07:59:04;;;;;;;8.77;7.70;;;18.30;99.90;;;;;;5074096;28;20415;-62
2023/08/26 08:01:30;;;;;;;12.38;7.75;;;18.30;99.90;;;;;;5073991;28;20060;-62
2023/08/26 08:03:56;;;;;;;10.80;7.35;;;18.40;99.90;;;;;;5074177;28;20055;-62
2023/08/26 08:06:24;;;;;;;11.77;7.55;;;18.50;99.90;;;;;;5071666;28;20052;-62
2023/08/26 08:08:51;;;;;;;10.18;7.78;;;18.70;99.90;;;;;;5054637;28;20056;-62
2023/08/26 08:11:19;;;;;;;13.75;6.65;;;18.90;99.90;;;;;;5054287;28;20044;-62
2023/08/26 08:13:46;;;;;;;9.88;6.97;;;19.30;99.90;;;;;;5053718;28;20102;-63
2023/08/26 08:16:14;;;;;;;7.47;6.40;;;19.50;99.90;;;;;;5053578;28;20078;-63
2023/08/26 08:18:40;;;;;;;10.55;6.53;;;19.60;99.90;;;;;;5073958;28;20052;-62
2023/08/26 08:21:08;;;;;;;10.85;6.63;;;19.70;99.90;;;;;;5073842;28;20067;-62
2023/08/26 08:23:36;;;;;;;10.48;6.70;;;19.70;99.90;;;;;;5073920;28;20095;-62
2023/08/26 08:26:03;;;;;;;10.27;6.93;;;19.90;99.90;;;;;;5055931;28;20060;-61
2023/08/26 08:28:29;;;;;;;9.68;6.32;;;19.90;99.90;;;;;;5065166;28;20044;-62
2023/08/26 08:30:57;;;;;;;10.80;6.70;;;19.90;99.90;;;;;;5093816;28;20429;-62
2023/08/26 08:33:23;;;;;;;9.18;6.00;;;20.10;99.90;;;;;;5094073;28;20052;-62
2023/08/26 08:35:51;;;;;;;10.45;6.85;;;20.40;99.90;;;;;;5093110;28;20371;-62
2023/08/26 08:38:17;;;;;;;8.25;5.32;;;20.40;99.90;;;;;;5059943;28;20052;-62
2023/08/26 08:40:43;;;;;;;7.70;5.32;;;20.50;99.90;;;;;;5073196;28;20067;-62
2023/08/26 08:43:11;;;;;;;8.45;4.78;;;20.50;99.90;;;;;;5073840;28;20048;-62
2023/08/26 08:45:37;;;;;;;8.50;5.18;;;20.20;99.90;;;;;;5073378;28;20322;-64
2023/08/26 08:48:04;;;;;;;10.25;5.50;;;20.20;99.90;;;;;;5073198;28;20487;-61
2023/08/26 08:50:32;;;;;;;9.90;4.93;;;20.30;99.90;;;;;;5038786;28;20044;-62
2023/08/26 08:52:59;;;;;;;7.40;4.63;;;20.40;99.90;;;;;;5073653;28;20064;-63
2023/08/26 08:55:25;;;;;;;8.27;4.40;;;20.50;99.90;;;;;;5038580;28;20056;-62
2023/08/26 08:57:53;;;;;;;7.50;3.75;;;20.50;99.90;;;;;;5072542;28;20453;-62
2023/08/26 09:00:23;;;;;;;6.25;3.95;;;20.50;99.90;;;;;;5072897;28;20457;-62
2023/08/26 09:02:52;;;;;;;7.13;3.90;;;20.30;99.90;;;;;;5073179;28;20041;-63
2023/08/26 09:05:21;;;;;;;8.80;4.38;;;20.40;99.90;;;;;;5074572;28;20512;-62
2023/08/26 09:07:49;;;;;;;9.38;4.20;;;20.50;99.90;;;;;;5063674;28;20044;-62
2023/08/26 09:10:15;;;;;;;7.00;3.85;;;20.30;99.90;;;;;;5073051;28;20085;-63
2023/08/26 09:12:43;;;;;;;8.60;3.97;;;20.30;99.90;;;;;;5072698;28;20044;-62
2023/08/26 09:15:09;;;;;;;10.00;3.78;;;20.30;99.90;;;;;;5072494;28;20040;-62
2023/08/26 09:17:44;;;;;;;8.77;4.53;;;20.40;99.90;;;;;;5064492;28;20461;-62
2023/08/26 09:20:12;;;;;;;9.00;4.50;;;20.40;99.90;;;;;;5055633;28;20052;-62
2023/08/26 09:22:38;;;;;;;6.38;4.13;;;20.60;99.90;;;;;;5073161;28;20496;-63
2023/08/26 09:25:05;;;;;;;8.77;4.03;;;20.90;99.90;;;;;;5072475;28;20052;-62
2023/08/26 09:27:41;;;;;;;6.32;3.85;;;20.90;99.90;;;;;;5055518;28;20052;-63
2023/08/26 09:30:08;;;;;;;6.07;3.70;;;21.00;99.90;;;;;;5092948;28;20048;-62
2023/08/26 09:32:39;;;;;;;6.63;3.60;;;21.10;99.90;;;;;;5092856;28;20055;-63
2023/08/26 09:35:10;;;;;;;7.07;3.30;;;21.10;99.90;;;;;;5092690;28;20072;-63
2023/08/26 09:37:42;;;;;;;8.10;3.30;;;21.00;99.90;;;;;;5081922;28;20045;-62
2023/08/26 09:40:13;;;;;;;8.82;3.30;;;21.20;99.90;;;;;;5072314;28;20139;-63
2023/08/26 09:42:43;;;;;;;7.90;2.90;;;21.30;99.90;;;;;;5070860;28;20397;-62
2023/08/26 09:45:10;;;;;;;6.55;3.15;;;21.30;99.90;;;;;;5070832;28;20060;-62
2023/08/26 09:47:37;;;;;;;4.55;2.97;;;21.10;99.90;;;;;;5071957;28;20122;-63
2023/08/26 09:50:07;;;;;;;9.32;3.50;;;21.00;99.90;;;;;;5072065;28;20048;-62
2023/08/26 09:52:42;;;;;;;5.68;2.90;;;21.00;99.90;;;;;;5071779;28;20533;-63
2023/08/26 09:55:10;;;;;;;7.78;4.78;;;20.90;99.90;;;;;;5054424;28;20052;-63
2023/08/26 09:57:36;;;;;;;8.07;3.03;;;20.90;99.90;;;;;;5072131;28;20429;-62
2023/08/26 10:00:03;;;;;;;4.82;2.60;;;21.00;99.90;;;;;;5072291;28;20045;-62
2023/08/26 10:02:32;;;;;;;6.03;2.85;;;21.00;99.90;;;;;;5071289;28;20052;-62
2023/08/26 10:05:05;;;;;;;5.78;2.95;;;21.10;99.90;;;;;;5070181;28;20053;-63
2023/08/26 10:07:33;;;;;;;5.43;3.00;;;21.10;99.90;;;;;;5063084;28;20056;-63
2023/08/26 10:10:07;;;;;;;7.65;2.80;;;21.20;99.90;;;;;;5072144;28;20052;-63
2023/08/26 10:12:39;;;;;;;5.88;2.75;;;21.20;99.90;;;;;;5072124;28;20458;-62
2023/08/26 10:15:11;;;;;;;5.63;2.72;;;21.20;99.90;;;;;;5071391;28;20044;-63
2023/08/26 10:17:43;;;;;;;6.22;3.00;;;21.20;99.90;;;;;;5071998;28;20044;-62
2023/08/26 10:20:11;;;;;;;6.05;2.90;;;21.00;99.90;;;;;;5072165;28;20059;-63
2023/08/26 10:22:37;;;;;;;4.57;2.90;;;20.90;99.90;;;;;;5071554;28;20056;-63
2023/08/26 10:25:09;;;;;;;6.47;3.03;;;20.90;99.90;;;;;;5070878;28;20086;-62
2023/08/26 10:27:38;;;;;;;4.30;3.00;;;21.00;99.90;;;;;;5064585;28;20044;-62
2023/08/26 10:30:06;;;;;;;7.68;3.40;;;21.00;99.90;;;;;;5071867;28;20068;-63
2023/08/26 10:32:42;;;;;;;4.97;3.08;;;21.40;99.90;;;;;;5071666;28;20049;-63
2023/08/26 10:35:13;;;;;;;4.68;3.15;;;21.80;99.90;;;;;;5053748;28;20053;-63
2023/08/26 10:37:40;;;;;;;4.45;3.03;;;21.70;99.90;;;;;;5072070;28;20055;-63
2023/08/26 10:40:14;;;;;;;4.82;2.55;;;21.50;99.90;;;;;;5071462;28;20060;-62
2023/08/26 10:43:04;;;;;;;5.97;3.20;;;21.60;99.90;;;;;;5072013;28;20106;-63
2023/08/26 10:45:30;;;;;;;4.30;2.30;;;21.60;99.90;;;;;;5053632;28;20056;-62
2023/08/26 10:48:00;;;;;;;3.20;2.47;;;21.50;99.90;;;;;;5071320;28;20052;-63
2023/08/26 10:50:28;;;;;;;3.58;2.33;;;21.80;99.90;;;;;;5067632;28;20048;-63
2023/08/26 10:53:13;;;;;;;3.17;2.20;;;21.90;99.90;;;;;;5071749;28;20124;-64
2023/08/26 10:55:40;;;;;;;3.30;2.30;;;21.90;99.90;;;;;;5071657;28;20055;-63
2023/08/26 10:58:06;;;;;;;3.35;2.40;;;22.10;99.90;;;;;;5060576;28;20071;-62
2023/08/26 11:00:33;;;;;;;3.88;2.65;;;22.10;99.90;;;;;;5071071;28;20102;-63
2023/08/26 11:03:03;;;;;;;4.82;2.70;;;22.10;99.90;;;;;;5071844;28;20063;-62
2023/08/26 11:05:30;;;;;;;4.38;2.90;;;22.10;99.90;;;;;;5071005;28;20437;-63
2023/08/26 11:07:56;;;;;;;3.47;2.60;;;22.00;99.90;;;;;;5071733;28;20465;-62
2023/08/26 11:10:41;;;;;;;3.78;2.83;;;22.10;99.90;;;;;;5071526;28;20467;-62
2023/08/26 11:13:41;;;;;;;4.85;3.00;;;22.10;99.90;;;;;;5071358;28;20360;-62
2023/08/26 11:16:08;;;;;;;3.67;2.08;;;22.10;99.90;;;;;;5052958;28;20102;-63
2023/08/26 11:18:35;;;;;;;3.63;2.30;;;22.00;99.90;;;;;;5059885;28;20380;-63
2023/08/26 11:21:05;;;;;;;4.63;2.90;;;22.00;99.90;;;;;;5063676;28;20049;-62
2023/08/26 11:23:35;;;;;;;5.80;3.35;;;22.20;99.90;;;;;;5071257;28;20056;-63
2023/08/26 11:26:07;;;;;;;4.28;2.50;;;22.10;99.90;;;;;;5070999;28;20126;-63
2023/08/26 11:28:33;;;;;;;6.45;2.70;;;21.90;99.90;;;;;;5056802;28;20045;-63
2023/08/26 11:31:00;;;;;;;3.90;2.65;;;21.90;99.90;;;;;;5071036;28;20131;-63
2023/08/26 11:33:27;;;;;;;5.20;2.67;;;21.90;99.90;;;;;;5071499;28;20121;-62
2023/08/26 11:35:54;;;;;;;3.40;2.33;;;21.80;99.90;;;;;;5054916;28;20453;-62
2023/08/26 11:38:22;;;;;;;2.67;2.08;;;22.00;99.90;;;;;;5044492;28;20044;-64
2023/08/26 11:40:48;;;;;;;2.75;2.40;;;22.10;99.90;;;;;;5057136;28;20062;-63
2023/08/26 11:43:18;;;;;;;3.90;2.28;;;22.20;99.90;;;;;;5073519;28;20369;-63
2023/08/26 11:45:46;;;;;;;2.95;2.45;;;22.20;99.90;;;;;;5056762;28;20059;-63
2023/08/26 11:48:14;;;;;;;4.72;1.98;;;22.30;99.90;;;;;;5074136;28;20088;-62
2023/08/26 11:50:41;;;;;;;3.13;2.30;;;22.40;99.90;;;;;;5074291;28;20498;-62
2023/08/26 11:53:10;;;;;;;2.75;2.03;;;22.50;99.90;;;;;;5074782;28;20094;-62
2023/08/26 11:55:38;;;;;;;3.13;2.35;;;22.70;99.90;;;;;;5074028;28;20044;-63
2023/08/26 11:58:08;;;;;;;3.75;2.22;;;22.70;99.90;;;;;;5059011;28;20067;-63
2023/08/26 12:00:36;;;;;;;4.88;2.40;;;22.70;99.90;;;;;;5072987;28;20057;-62
2023/08/26 12:03:04;;;;;;;3.10;2.50;;;22.70;99.90;;;;;;5073264;28;20045;-62
2023/08/26 12:05:49;;;;;;;3.95;2.55;;;22.70;99.90;;;;;;5073517;28;20100;-63
2023/08/26 12:08:17;;;;;;;4.40;2.50;;;22.60;99.90;;;;;;5062080;28;20103;-63
2023/08/26 12:10:51;;;;;;;3.72;2.60;;;22.60;99.90;;;;;;5040184;28;20060;-63
2023/08/26 12:13:19;;;;;;;3.72;2.33;;;22.60;99.90;;;;;;5056359;28;20128;-63
2023/08/26 12:15:47;;;;;;;3.72;2.78;;;22.50;99.90;;;;;;5056144;28;20063;-63
2023/08/26 12:18:13;;;;;;;4.25;2.75;;;22.50;99.90;;;;;;5073644;28;20048;-63
2023/08/26 12:20:46;;;;;;;3.35;2.75;;;22.60;99.90;;;;;;5071559;28;20052;-62
2023/08/26 12:23:12;;;;;;;3.13;2.75;;;22.70;99.90;;;;;;5072609;28;20052;-63
2023/08/26 12:25:42;;;;;;;5.05;2.92;;;22.70;99.90;;;;;;5072390;28;20064;-62
2023/08/26 12:28:18;;;;;;;4.72;3.08;;;22.90;99.90;;;;;;5063503;28;20122;-63
2023/08/26 12:30:47;;;;;;;4.38;3.13;;;23.00;99.90;;;;;;5057199;28;20094;-63
2023/08/26 12:33:15;;;;;;;4.80;3.30;;;23.00;99.90;;;;;;5074351;28;20060;-63
2023/08/26 12:35:41;;;;;;;4.88;3.15;;;22.90;99.90;;;;;;5074127;28;20049;-62
2023/08/26 12:38:07;;;;;;;3.83;3.05;;;22.70;99.90;;;;;;5074057;28;20049;-62
2023/08/26 12:40:35;;;;;;;3.60;3.15;;;22.60;99.90;;;;;;5072910;28;20065;-63
2023/08/26 12:43:04;;;;;;;5.22;3.05;;;22.50;99.90;;;;;;5072749;28;20049;-62
2023/08/26 12:45:31;;;;;;;4.85;3.08;;;22.40;99.90;;;;;;5072681;28;20056;-63
2023/08/26 12:47:59;;;;;;;4.97;3.38;;;22.20;99.90;;;;;;5064393;28;20056;-63